»·PEaware :: AUZ081 KLAX-YSSY

AUZ081 :: KLAX-YSSY

FLIGHT INFORMATION

Flight Status: Arrived
Operator:
Australian Airlines
More flights by this operator :: More flights under this callsign
Pilot: Kim E. (65)
Aircraft: BOEING 747-400 (WINGLETS)
(B744)
More flights by this aircraft type
Origin: KLAX Los Angeles Intl
United States
Destination: YSSY Kingsford Smith Intl
Australia
More flights between these airports :: More routes between these airports
Route: +PERCH9 FICKY B581 NN A579 NATLI SHARK MARLN
File this flight plan on PilotEdge
Remarks: / V /
Altitude:
(Current/Filed)
40,000ft
Speed:
(Current/Filed)
500kts
Departed: 12-Jun-12 10:33 PM
Arrived: 13-Jun-12 02:38 AM
Distance/Time
Traveled:
6508nm/4:04
Distance/Time
To Go:
Arrived

Flight Plot

Page will automatically refresh every two minutes.

Flight plan parsing failed; only flown route is shown


Map Options




Map Legend


Flown Route
Filed Route
Departure Airport
Arrival Airport
Navaid (VOR, NDB)
Fix

Horizontal Profiles

Position Reports

Time Latitude Longitude Heading Altitude Ground
Speed
12-Jun-12 22:31 -23.498727 169.626473 232 40000ft 480kts
12-Jun-12 22:32 -23.579989 169.510932 232 40000ft 480kts
12-Jun-12 22:33 -23.661196 169.394194 232 40000ft 480kts
12-Jun-12 22:34 -23.742072 169.277740 232 40000ft 480kts
12-Jun-12 22:35 -23.823124 169.161202 232 40000ft 480kts
12-Jun-12 22:36 -23.903839 169.044400 232 40000ft 480kts
12-Jun-12 22:37 -23.984922 168.927253 232 40000ft 480kts
12-Jun-12 22:38 -24.064153 168.812163 232 40000ft 480kts
12-Jun-12 22:39 -24.144871 168.694625 232 40000ft 480kts
12-Jun-12 22:40 -24.225436 168.577396 233 40000ft 480kts
12-Jun-12 22:41 -24.305412 168.460197 233 40000ft 480kts
12-Jun-12 22:42 -24.386262 168.341937 233 40000ft 480kts
12-Jun-12 22:43 -24.466028 168.224695 233 40000ft 480kts
12-Jun-12 22:44 -24.546365 168.106749 232 40000ft 480kts
12-Jun-12 22:45 -24.626682 167.988459 233 40000ft 480kts
12-Jun-12 22:46 -24.706796 167.869846 233 40000ft 480kts
12-Jun-12 22:47 -24.786411 167.752024 233 40000ft 480kts
12-Jun-12 22:48 -24.866375 167.633111 233 40000ft 480kts
12-Jun-12 22:49 -24.945847 167.514351 233 40000ft 480kts
12-Jun-12 22:50 -25.025209 167.395614 233 40000ft 480kts
12-Jun-12 22:51 -25.104610 167.276651 233 40000ft 480kts
12-Jun-12 22:52 -25.183801 167.157420 233 40000ft 480kts
12-Jun-12 22:53 -25.262889 167.038710 233 40000ft 480kts
12-Jun-12 22:54 -25.342098 166.918926 233 40000ft 480kts
12-Jun-12 22:55 -25.421168 166.799399 233 40000ft 480kts
12-Jun-12 22:56 -25.500305 166.679350 233 40000ft 480kts
12-Jun-12 22:57 -25.579273 166.559548 233 40000ft 480kts
12-Jun-12 22:58 -25.657756 166.440103 233 40000ft 480kts
12-Jun-12 22:59 -25.736479 166.319443 234 40000ft 480kts
12-Jun-12 23:00 -25.788844 166.239060 233 40000ft 480kts
12-Jun-12 23:01 -25.840867 166.159608 234 40000ft 480kts
12-Jun-12 23:01 -25.893375 166.078790 234 40000ft 480kts
12-Jun-12 23:02 -25.971834 165.957605 234 40000ft 480kts
12-Jun-12 23:03 -26.049911 165.837399 234 40000ft 480kts
12-Jun-12 23:04 -26.115157 165.736180 234 40000ft 480kts
12-Jun-12 23:07 -26.348334 165.372851 234 40000ft 480kts
12-Jun-12 23:08 -26.426417 165.251023 234 40000ft 480kts
12-Jun-12 23:09 -26.503934 165.129235 234 40000ft 480kts
12-Jun-12 23:10 -26.581630 165.007649 234 40000ft 480kts
12-Jun-12 23:11 -26.659083 164.885652 234 40000ft 480kts
12-Jun-12 23:12 -26.736180 164.763437 234 40000ft 480kts
12-Jun-12 23:13 -26.813527 164.641161 234 40000ft 479kts
12-Jun-12 23:14 -26.889932 164.519464 234 40000ft 479kts
12-Jun-12 23:15 -26.966959 164.396405 234 40000ft 479kts
12-Jun-12 23:16 -27.043796 164.273632 234 40000ft 479kts
12-Jun-12 23:17 -27.120716 164.150024 234 40000ft 479kts
12-Jun-12 23:18 -27.196869 164.027979 234 40000ft 479kts
12-Jun-12 23:19 -27.273538 163.904177 235 40000ft 479kts
12-Jun-12 23:20 -27.350249 163.780260 234 40000ft 479kts
12-Jun-12 23:21 -27.426029 163.657486 235 40000ft 479kts
12-Jun-12 23:22 -27.502291 163.533278 235 40000ft 479kts
12-Jun-12 23:23 -27.578539 163.409585 235 40000ft 479kts
12-Jun-12 23:24 -27.654209 163.285705 235 40000ft 479kts
12-Jun-12 23:25 -27.730200 163.161004 235 40000ft 479kts
12-Jun-12 23:26 -27.805734 163.037027 235 40000ft 479kts
12-Jun-12 23:27 -27.881840 162.911638 235 40000ft 479kts
12-Jun-12 23:28 -27.956602 162.787569 235 40000ft 479kts
12-Jun-12 23:29 -28.031816 162.662542 235 40000ft 479kts
12-Jun-12 23:30 -28.107127 162.537518 235 40000ft 479kts
12-Jun-12 23:31 -28.182190 162.411523 235 40000ft 479kts
12-Jun-12 23:32 -28.256984 162.286596 235 40000ft 479kts
12-Jun-12 23:33 -28.331775 162.160818 235 40000ft 479kts
12-Jun-12 23:34 -28.406409 162.034958 235 40000ft 479kts
12-Jun-12 23:35 -28.480918 161.909433 235 40000ft 479kts
12-Jun-12 23:36 -28.555736 161.782980 235 40000ft 479kts
12-Jun-12 23:37 -28.630577 161.656336 235 40000ft 479kts
12-Jun-12 23:38 -28.704702 161.529819 236 40000ft 479kts
12-Jun-12 23:39 -28.778376 161.403330 235 40000ft 479kts
12-Jun-12 23:40 -28.852494 161.276504 236 40000ft 479kts
12-Jun-12 23:41 -28.926431 161.148987 236 40000ft 479kts
12-Jun-12 23:42 -29.000094 161.022325 236 40000ft 479kts
12-Jun-12 23:43 -29.073653 160.894844 236 40000ft 479kts
12-Jun-12 23:44 -29.147151 160.767140 236 40000ft 479kts
12-Jun-12 23:45 -29.220878 160.639100 236 40000ft 479kts
12-Jun-12 23:46 -29.293756 160.511466 236 40000ft 479kts
12-Jun-12 23:47 -29.366890 160.383349 236 40000ft 479kts
12-Jun-12 23:48 -29.439984 160.254648 236 40000ft 479kts
12-Jun-12 23:49 -29.500637 160.147437 236 40000ft 479kts
12-Jun-12 23:50 -29.573966 160.019125 236 40000ft 479kts
12-Jun-12 23:51 -29.646470 159.890307 236 40000ft 479kts
12-Jun-12 23:52 -29.719836 159.760153 236 40000ft 479kts
12-Jun-12 23:53 -29.792215 159.630898 236 40000ft 479kts
12-Jun-12 23:54 -29.864032 159.501977 236 40000ft 479kts
12-Jun-12 23:55 -29.936427 159.372067 237 40000ft 479kts
12-Jun-12 23:56 -30.009030 159.240899 237 40000ft 479kts
12-Jun-12 23:57 -30.080542 159.112008 237 40000ft 479kts
12-Jun-12 23:58 -30.152711 158.981029 237 40000ft 479kts
12-Jun-12 23:59 -30.223889 158.851204 237 40000ft 479kts
13-Jun-12 00:00 -30.295809 158.720494 237 40000ft 479kts
13-Jun-12 00:01 -30.367278 158.589309 237 40000ft 479kts
13-Jun-12 00:02 -30.438286 158.459000 237 40000ft 479kts
13-Jun-12 00:03 -30.509476 158.327612 237 40000ft 479kts
13-Jun-12 00:04 -30.580252 158.196947 237 40000ft 479kts
13-Jun-12 00:05 -30.651767 158.064799 238 40000ft 478kts
13-Jun-12 00:06 -30.722087 157.933608 238 40000ft 478kts
13-Jun-12 00:07 -30.792538 157.802390 238 40000ft 478kts
13-Jun-12 00:08 -30.863802 157.668713 238 40000ft 478kts
13-Jun-12 00:09 -30.933774 157.537004 238 40000ft 478kts
13-Jun-12 00:10 -31.004357 157.404999 235 39996ft 478kts
13-Jun-12 00:11 -31.086084 157.281360 231 39997ft 478kts
13-Jun-12 00:12 -31.168190 157.159212 231 39996ft 478kts
13-Jun-12 00:13 -31.250925 157.036293 231 39997ft 478kts
13-Jun-12 00:14 -31.333524 156.913077 232 39997ft 478kts
13-Jun-12 00:15 -31.415792 156.789565 232 39997ft 478kts
13-Jun-12 00:16 -31.498068 156.666509 232 39997ft 478kts
13-Jun-12 00:17 -31.579669 156.544001 232 39997ft 478kts
13-Jun-12 00:18 -31.661640 156.419947 232 39997ft 478kts
13-Jun-12 00:20 -31.811393 156.192194 232 39996ft 478kts
13-Jun-12 00:21 -31.893099 156.068014 232 39997ft 478kts
13-Jun-12 00:22 -31.974627 155.943040 232 39996ft 478kts
13-Jun-12 00:23 -32.055766 155.818440 232 39997ft 478kts
13-Jun-12 00:24 -32.136923 155.693672 232 39997ft 478kts
13-Jun-12 00:25 -32.218028 155.567977 232 39997ft 478kts
13-Jun-12 00:26 -32.298355 155.443580 232 39997ft 478kts
13-Jun-12 00:27 -32.379173 155.317405 232 39997ft 478kts
13-Jun-12 00:28 -32.459727 155.191618 232 39997ft 478kts
13-Jun-12 00:29 -32.540775 155.065437 232 39996ft 478kts
13-Jun-12 00:30 -32.620493 154.940083 233 39997ft 478kts
13-Jun-12 00:31 -32.701155 154.813403 232 39997ft 478kts
13-Jun-12 00:32 -32.781138 154.686650 233 39997ft 478kts
13-Jun-12 00:33 -32.861330 154.559346 232 39997ft 478kts
13-Jun-12 00:34 -32.940802 154.432598 233 39997ft 478kts
13-Jun-12 00:35 -33.019996 154.305515 233 39997ft 478kts
13-Jun-12 00:36 -33.099951 154.177766 233 39997ft 478kts
13-Jun-12 00:37 -33.179264 154.049904 233 39997ft 478kts
13-Jun-12 00:38 -33.258792 153.921486 233 39996ft 478kts
13-Jun-12 00:39 -33.337538 153.794119 233 39997ft 478kts
13-Jun-12 00:40 -33.416874 153.664774 233 39997ft 478kts
13-Jun-12 00:41 -33.495981 153.536180 233 39997ft 478kts
13-Jun-12 00:42 -33.517203 153.501721 233 39997ft 478kts
13-Jun-12 00:43 -33.517203 153.501721 233 39997ft 478kts
13-Jun-12 00:44 -33.517203 153.501721 233 39997ft 478kts
13-Jun-12 00:45 -33.517203 153.501721 233 39997ft 478kts
13-Jun-12 00:46 -33.517203 153.501721 233 39997ft 478kts
13-Jun-12 00:47 -33.517203 153.501721 233 39997ft 478kts
13-Jun-12 00:48 -33.517203 153.501721 233 39997ft 478kts
13-Jun-12 00:49 -33.517203 153.501721 233 39997ft 478kts
13-Jun-12 00:50 -33.517203 153.501721 233 39997ft 478kts
13-Jun-12 00:51 -33.517203 153.501721 233 39997ft 478kts
13-Jun-12 00:52 -33.517203 153.501721 233 39997ft 478kts
13-Jun-12 00:53 -33.517203 153.501721 233 39997ft 478kts
13-Jun-12 00:54 -33.517203 153.501721 233 39997ft 478kts
13-Jun-12 00:55 -33.517203 153.501721 233 39997ft 478kts
13-Jun-12 00:56 -33.517203 153.501721 233 39997ft 478kts
13-Jun-12 00:57 -33.517203 153.501721 233 39997ft 478kts
13-Jun-12 00:58 -33.517203 153.501721 233 39997ft 478kts
13-Jun-12 00:59 -33.517203 153.501721 233 39997ft 478kts
13-Jun-12 01:00 -33.517203 153.501721 233 39997ft 478kts
13-Jun-12 01:01 -33.517203 153.501721 233 39997ft 478kts
13-Jun-12 01:02 -33.517203 153.501721 233 39997ft 478kts
13-Jun-12 01:03 -33.517203 153.501721 233 39997ft 478kts
13-Jun-12 01:04 -33.517203 153.501721 233 39997ft 478kts
13-Jun-12 01:05 -33.517203 153.501721 233 39997ft 478kts
13-Jun-12 01:06 -33.517203 153.501721 233 39997ft 478kts
13-Jun-12 01:07 -33.517203 153.501721 233 39997ft 478kts
13-Jun-12 01:08 -33.517203 153.501721 233 39997ft 478kts
13-Jun-12 01:09 -33.517203 153.501721 233 39997ft 478kts
13-Jun-12 01:10 -33.517203 153.501721 233 39997ft 478kts
13-Jun-12 01:11 -33.517203 153.501721 233 39997ft 478kts
13-Jun-12 01:12 -33.517203 153.501721 233 39997ft 478kts
13-Jun-12 01:13 -33.517203 153.501721 233 39997ft 478kts
13-Jun-12 01:14 -33.517203 153.501721 233 39997ft 478kts
13-Jun-12 01:15 -33.517203 153.501721 233 39997ft 478kts
13-Jun-12 01:16 -33.517203 153.501721 233 39997ft 478kts
13-Jun-12 01:17 -33.517203 153.501721 233 39997ft 478kts
13-Jun-12 01:18 -33.517203 153.501721 233 39997ft 478kts
13-Jun-12 01:19 -33.517203 153.501721 233 39997ft 478kts
13-Jun-12 01:20 -33.517203 153.501721 233 39997ft 478kts
13-Jun-12 01:21 -33.517203 153.501721 233 39997ft 478kts
13-Jun-12 01:22 -33.517203 153.501721 233 39997ft 478kts
13-Jun-12 01:23 -33.517203 153.501721 233 39997ft 478kts
13-Jun-12 01:24 -33.517203 153.501721 233 39997ft 478kts
13-Jun-12 01:25 -33.517203 153.501721 233 39997ft 478kts
13-Jun-12 01:26 -33.517203 153.501721 233 39997ft 478kts
13-Jun-12 01:27 -33.517203 153.501721 233 39997ft 478kts
13-Jun-12 01:28 -33.517203 153.501721 233 39997ft 478kts
13-Jun-12 01:29 -33.517203 153.501721 233 39997ft 478kts
13-Jun-12 01:30 -33.517203 153.501721 233 39997ft 478kts
13-Jun-12 01:31 -33.517203 153.501721 233 39997ft 478kts
13-Jun-12 01:32 -33.517203 153.501721 233 39997ft 478kts
13-Jun-12 01:33 -33.517203 153.501721 233 39997ft 478kts
13-Jun-12 01:34 -33.517203 153.501721 233 39997ft 478kts
13-Jun-12 01:35 -33.517203 153.501721 233 39997ft 478kts
13-Jun-12 01:36 -33.517203 153.501721 233 39997ft 478kts
13-Jun-12 01:37 -33.517203 153.501721 233 39997ft 478kts
13-Jun-12 01:38 -33.517203 153.501721 233 39997ft 478kts
13-Jun-12 01:39 -33.517203 153.501721 233 39997ft 478kts
13-Jun-12 01:40 -33.517203 153.501721 233 39997ft 478kts
13-Jun-12 01:41 -33.517203 153.501721 233 39997ft 478kts
13-Jun-12 01:42 -33.517203 153.501721 233 39997ft 478kts
13-Jun-12 01:43 -33.517203 153.501721 233 39997ft 478kts
13-Jun-12 01:44 -33.517203 153.501721 233 39997ft 478kts
13-Jun-12 01:45 -33.517203 153.501721 233 39997ft 478kts
13-Jun-12 01:46 -33.517203 153.501721 233 39997ft 478kts
13-Jun-12 01:47 -33.517203 153.501721 233 39997ft 478kts
13-Jun-12 01:48 -33.517203 153.501721 233 39997ft 478kts
13-Jun-12 01:49 -33.517203 153.501721 233 39997ft 478kts
13-Jun-12 01:50 -33.517203 153.501721 233 39997ft 478kts
13-Jun-12 01:51 -33.517203 153.501721 233 39997ft 478kts
13-Jun-12 01:52 -33.517203 153.501721 233 39997ft 478kts
13-Jun-12 01:53 -33.517203 153.501721 233 39997ft 478kts
13-Jun-12 01:54 -33.517203 153.501721 233 39997ft 478kts
13-Jun-12 01:55 -33.517203 153.501721 233 39997ft 478kts
13-Jun-12 01:56 -33.517203 153.501721 233 39997ft 478kts
13-Jun-12 01:57 -33.517203 153.501721 233 39997ft 478kts
13-Jun-12 01:58 -33.517203 153.501721 233 39997ft 478kts
13-Jun-12 01:59 -33.517203 153.501721 233 39997ft 478kts
13-Jun-12 02:00 -33.517203 153.501721 233 39997ft 478kts
13-Jun-12 02:07 -33.633905 153.309713 233 39997ft 478kts
13-Jun-12 02:08 -33.712271 153.181140 233 37352ft 471kts
13-Jun-12 02:09 -33.786799 153.057671 233 35017ft 448kts
13-Jun-12 02:10 -33.859424 152.937454 233 32581ft 433kts
13-Jun-12 02:11 -33.929062 152.821596 234 30291ft 419kts
13-Jun-12 02:12 -33.996059 152.709630 234 28120ft 405kts
13-Jun-12 02:13 -34.060609 152.600721 239 26031ft 390kts
13-Jun-12 02:14 -34.073556 152.473381 275 23704ft 382kts
13-Jun-12 02:15 -34.061193 152.347367 276 21636ft 370kts
13-Jun-12 02:16 -34.049593 152.225744 276 19520ft 358kts
13-Jun-12 02:17 -34.038474 152.107594 276 17404ft 347kts
13-Jun-12 02:18 -34.027192 151.993192 276 15304ft 336kts
13-Jun-12 02:20 -34.006676 151.792898 276 11509ft 317kts
13-Jun-12 02:22 -33.988957 151.617155 276 10014ft 202kts
13-Jun-12 02:23 -33.982498 151.553738 277 8818ft 177kts
13-Jun-12 02:24 -33.976240 151.494130 277 8151ft 177kts
13-Jun-12 02:25 -33.970008 151.435604 277 7541ft 175kts
13-Jun-12 02:26 -33.974477 151.379177 233 6950ft 178kts
13-Jun-12 02:27 -34.014349 151.345003 210 6257ft 175kts
13-Jun-12 02:28 -34.054611 151.316633 209 5676ft 159kts
13-Jun-12 02:29 -34.092976 151.289891 209 5131ft 158kts
13-Jun-12 02:30 -34.131252 151.263271 209 4586ft 156kts
13-Jun-12 02:31 -34.138367 151.225562 324 3937ft 139kts
13-Jun-12 02:32 -34.101489 151.215731 348 2733ft 130kts
13-Jun-12 02:33 -34.062215 151.206073 348 1978ft 153kts
13-Jun-12 02:34 -34.022569 151.195834 347 1182ft 135kts
13-Jun-12 02:35 -33.985640 151.186700 348 513ft 139kts
13-Jun-12 02:36 -33.950458 151.177216 343 33ft 86kts
13-Jun-12 02:37 -33.940962 151.174627 348 33ft 12kts
13-Jun-12 02:38 -33.939410 151.174068 290 33ft 6kts
13-Jun-12 02:39 -33.940102 151.170344 253 33ft 7kts
13-Jun-12 02:40 -33.940535 151.168667 252 33ft 3kts
13-Jun-12 02:41 -33.940138 151.167994 338 33ft 2kts
13-Jun-12 02:42 -33.939544 151.168617 71 33ft 0kts
13-Jun-12 02:43 -33.939544 151.168618 71 33ft 0kts
13-Jun-12 02:44 -33.939544 151.168619 71 33ft 0kts
13-Jun-12 02:45 -33.939543 151.168619 71 33ft 0kts
13-Jun-12 02:46 -33.939543 151.168619 71 33ft 0kts
13-Jun-12 02:47 -33.939543 151.168619 71 33ft 0kts
13-Jun-12 02:48 -33.939543 151.168619 71 33ft 0kts
13-Jun-12 02:49 -33.939543 151.168619 71 33ft 0kts
13-Jun-12 02:50 -33.939543 151.168619 71 33ft 0kts
13-Jun-12 02:51 -33.939543 151.168619 71 33ft 0kts

Navigation Log

Ident Type
Flight plan parsing failed, navigation log unavailable